createdAt,value
2023-01-15T00:02:52.086Z,98860.75
2023-01-15T00:07:54.505Z,98860.88
2023-01-15T00:12:56.672Z,98866.69
2023-01-15T00:17:58.873Z,98890.75
2023-01-15T00:23:01.147Z,98886.16
2023-01-15T00:28:04.576Z,98885.81
2023-01-15T00:33:06.768Z,98896.59
2023-01-15T00:38:09.034Z,98881.31
2023-01-15T00:43:11.749Z,98883.56
2023-01-15T00:48:15.083Z,98900.25
2023-01-15T00:53:17.396Z,98905.84
2023-01-15T00:58:19.665Z,98883.81
2023-01-15T01:03:23.737Z,98869.56
2023-01-15T01:08:25.853Z,98864.16
2023-01-15T01:13:27.984Z,98863.63
2023-01-15T01:18:30.196Z,98848.25
2023-01-15T01:23:32.699Z,98849.41
2023-01-15T01:28:34.762Z,98836.31
2023-01-15T01:33:36.933Z,98839.56
2023-01-15T01:38:39.263Z,98878.88
2023-01-15T01:43:52.668Z,98865.63
2023-01-15T01:48:58.447Z,98872.13
2023-01-15T01:54:00.725Z,98866.41
2023-01-15T01:59:04.459Z,98863.97
2023-01-15T02:04:08.219Z,98872.50
2023-01-15T02:09:10.319Z,98876.09
2023-01-15T02:14:25.149Z,98875.69
2023-01-15T02:19:41.215Z,98867.09
2023-01-15T02:24:59.639Z,98870.38
2023-01-15T02:30:23.168Z,98858.91
2023-01-15T02:35:40.276Z,98845.59
2023-01-15T02:40:46.779Z,98854.63
2023-01-15T02:45:50.732Z,98861.31
2023-01-15T02:50:56.630Z,98859.72
2023-01-15T02:56:03.526Z,98851.09
2023-01-15T03:01:14.310Z,98824.38
2023-01-15T03:06:36.863Z,98809.84
2023-01-15T03:11:44.792Z,98839.66
2023-01-15T03:16:57.188Z,98835.28
2023-01-15T03:22:11.002Z,98839.94
2023-01-15T03:27:14.039Z,98842.97
2023-01-15T03:32:21.537Z,98833.69
2023-01-15T03:37:25.669Z,98828.72
2023-01-15T03:42:45.444Z,98843.09
2023-01-15T03:48:11.705Z,98807.31
2023-01-15T03:53:34.294Z,98804.63
2023-01-15T03:58:57.906Z,98810.47
2023-01-15T04:04:08.514Z,98811.63
2023-01-15T04:09:12.461Z,98821.50
2023-01-15T04:14:15.041Z,98835.13
2023-01-15T04:19:24.707Z,98822.19
2023-01-15T04:24:39.419Z,98825.91
2023-01-15T04:29:41.543Z,98832.16
2023-01-15T04:34:43.594Z,98828.06
2023-01-15T04:39:47.052Z,98819.28
2023-01-15T04:44:49.101Z,98829.47
2023-01-15T04:49:51.359Z,98835.38
2023-01-15T04:54:55.554Z,98837.06
2023-01-15T04:59:58.426Z,98819.81
2023-01-15T05:05:00.508Z,98828.34
2023-01-15T05:10:02.602Z,98828.75
2023-01-15T05:15:05.419Z,98830.94
2023-01-15T05:20:08.532Z,98827.22
2023-01-15T05:25:10.820Z,98826.09
2023-01-15T05:30:14.437Z,98828.59
2023-01-15T05:35:16.557Z,98835.22
2023-01-15T05:40:18.746Z,98823.09
2023-01-15T05:45:20.861Z,98822.63
2023-01-15T05:50:22.959Z,98819.81
2023-01-15T05:55:25.076Z,98829.75
2023-01-15T06:00:28.777Z,98827.59
2023-01-15T06:05:32.457Z,98834.16
2023-01-15T06:10:34.569Z,98842.63
2023-01-15T06:15:36.862Z,98843.13
2023-01-15T06:20:40.534Z,98856.63
2023-01-15T06:25:42.641Z,98848.25
2023-01-15T06:30:44.889Z,98857.41
2023-01-15T06:35:46.991Z,98865.28
2023-01-15T06:40:49.078Z,98861.88
2023-01-15T06:46:09.742Z,98848.69
2023-01-15T06:51:15.379Z,98866.31
2023-01-15T06:56:17.922Z,98863.34
2023-01-15T07:01:20.315Z,98863.34
2023-01-15T07:06:22.522Z,98861.84
2023-01-15T07:11:24.885Z,98842.44
2023-01-15T07:16:29.981Z,98855.00
2023-01-15T07:21:32.062Z,98859.50
2023-01-15T07:26:34.688Z,98849.56
2023-01-15T07:31:37.623Z,98844.00
2023-01-15T07:36:39.960Z,98849.94
2023-01-15T07:42:00.983Z,98858.09
2023-01-15T07:47:22.407Z,98858.44
2023-01-15T07:52:24.926Z,98877.16
2023-01-15T07:57:27.292Z,98887.16
2023-01-15T08:02:30.371Z,98903.84
2023-01-15T08:07:58.020Z,98893.69
2023-01-15T08:13:18.855Z,98898.75
2023-01-15T08:18:22.114Z,98911.38
2023-01-15T08:23:24.225Z,98917.31
2023-01-15T08:28:26.703Z,98919.28
2023-01-15T08:33:28.880Z,98920.75
2023-01-15T08:38:31.028Z,98924.03
2023-01-15T08:43:33.385Z,98929.63
2023-01-15T08:48:35.760Z,98939.78
2023-01-15T08:53:38.534Z,98947.16
2023-01-15T08:58:40.891Z,98946.41
2023-01-15T09:03:43.856Z,98943.22
2023-01-15T09:08:46.169Z,98942.91
2023-01-15T09:13:51.145Z,98959.25
2023-01-15T09:18:55.531Z,98952.06
2023-01-15T09:23:57.885Z,98972.69
2023-01-15T09:29:01.284Z,98957.34
2023-01-15T09:34:03.851Z,98965.56
2023-01-15T09:39:06.637Z,98973.50
2023-01-15T09:44:12.435Z,98962.31
2023-01-15T09:49:42.474Z,98966.19
2023-01-15T09:55:02.535Z,98942.56
2023-01-15T10:00:06.588Z,98947.38
2023-01-15T10:05:18.824Z,98936.31
2023-01-15T10:10:23.973Z,98961.22
2023-01-15T10:15:40.869Z,98945.66
2023-01-15T10:21:07.327Z,98987.38
2023-01-15T10:26:18.240Z,98972.78
2023-01-15T10:31:24.581Z,98958.47
2023-01-15T10:36:59.155Z,98985.03
2023-01-15T10:42:19.836Z,98972.59
2023-01-15T10:47:29.275Z,98965.53
2023-01-15T10:52:33.954Z,98961.72
2023-01-15T10:57:50.977Z,98970.00
2023-01-15T11:03:09.047Z,98964.22
2023-01-15T11:14:13.618Z,98965.16
2023-01-15T11:19:42.171Z,98984.41
2023-01-15T11:24:50.334Z,98968.97
2023-01-15T11:30:01.089Z,98970.47
2023-01-15T11:35:16.444Z,98962.59
2023-01-15T11:40:21.315Z,98967.53
2023-01-15T11:45:43.196Z,98986.41
2023-01-15T11:51:00.085Z,98966.19
2023-01-15T11:56:08.832Z,98956.00
2023-01-15T12:01:15.798Z,98968.81
2023-01-15T12:06:19.832Z,98960.25
2023-01-15T12:12:03.559Z,98950.63
2023-01-15T12:17:36.656Z,98963.94
2023-01-15T12:22:49.571Z,98974.75
2023-01-15T12:28:16.623Z,98972.44
2023-01-15T12:33:20.788Z,98956.72
2023-01-15T12:38:49.143Z,98959.34
2023-01-15T12:44:13.098Z,98942.75
2023-01-15T12:49:31.733Z,98946.78
2023-01-15T12:54:39.552Z,98943.06
2023-01-15T12:59:48.423Z,98928.63
2023-01-15T13:05:13.857Z,98918.25
2023-01-15T13:10:19.381Z,98935.84
2023-01-15T13:15:26.903Z,98938.97
2023-01-15T13:20:41.130Z,98927.81
2023-01-15T13:26:05.835Z,98931.38
2023-01-15T13:31:20.131Z,98934.84
2023-01-15T13:36:28.423Z,98947.16
2023-01-15T13:41:51.070Z,98971.88
2023-01-15T13:47:23.987Z,98970.81
2023-01-15T13:52:32.916Z,98962.94
2023-01-15T13:57:37.711Z,98967.16
2023-01-15T14:02:41.330Z,98953.03
2023-01-15T14:07:43.590Z,98954.09
2023-01-15T14:12:48.641Z,98967.44
2023-01-15T14:18:04.533Z,98969.50
2023-01-15T14:23:31.754Z,98988.78
2023-01-15T14:28:38.438Z,98983.13
2023-01-15T14:34:10.872Z,98986.19
2023-01-15T14:39:31.747Z,98980.66
2023-01-15T14:44:37.283Z,98981.69
2023-01-15T14:49:49.544Z,98985.59
2023-01-15T14:54:53.235Z,98989.47
2023-01-15T15:00:00.589Z,99006.19
2023-01-15T15:05:03.820Z,98995.00
2023-01-15T15:10:12.680Z,99011.31
2023-01-15T15:15:27.038Z,99027.19
2023-01-15T15:20:45.524Z,99022.63
2023-01-15T15:25:57.583Z,99023.81
2023-01-15T15:31:01.457Z,99022.63
2023-01-15T15:36:04.079Z,99026.00
2023-01-15T15:41:10.011Z,99026.03
2023-01-15T15:46:45.384Z,99008.34
2023-01-15T15:51:52.262Z,99010.84
2023-01-15T15:57:13.790Z,99010.50
2023-01-15T16:02:19.557Z,99020.25
2023-01-15T16:07:28.174Z,99019.09
2023-01-15T16:12:33.389Z,99027.41
2023-01-15T16:17:36.545Z,99022.44
2023-01-15T16:22:44.818Z,99026.94
2023-01-15T16:27:47.221Z,99030.91
2023-01-15T16:32:50.583Z,99020.78
2023-01-15T16:37:55.294Z,99022.84
2023-01-15T16:43:04.995Z,99025.69
2023-01-15T16:48:30.926Z,99023.09
2023-01-15T16:53:36.061Z,99023.50
2023-01-15T16:58:39.669Z,99012.00
2023-01-15T17:03:42.770Z,99033.97
2023-01-15T17:08:48.379Z,99026.13
2023-01-15T17:13:51.077Z,99030.78
2023-01-15T17:18:54.304Z,99024.66
2023-01-15T17:23:57.144Z,99034.31
2023-01-15T17:28:59.599Z,99040.56
2023-01-15T17:34:03.603Z,99032.59
2023-01-15T17:39:05.823Z,99051.06
2023-01-15T17:44:09.704Z,99050.34
2023-01-15T17:49:12.076Z,99037.50
2023-01-15T17:54:34.170Z,99037.66
2023-01-15T17:59:54.614Z,99051.22
2023-01-15T18:05:15.445Z,99033.88
2023-01-15T18:10:21.055Z,99034.81
2023-01-15T18:15:23.381Z,99037.63
2023-01-15T18:20:25.490Z,99049.75
2023-01-15T18:25:27.848Z,99043.75
2023-01-15T18:30:30.236Z,99048.63
2023-01-15T18:35:32.548Z,99054.03
2023-01-15T18:40:34.852Z,99057.72
2023-01-15T18:45:55.606Z,99054.00
2023-01-15T18:50:59.031Z,99069.59
2023-01-15T18:56:02.973Z,99059.16
2023-01-15T19:01:08.918Z,99070.44
2023-01-15T19:06:13.901Z,99063.50
2023-01-15T19:11:15.992Z,99071.84
2023-01-15T19:16:36.958Z,99072.97
2023-01-15T19:21:39.256Z,99062.88
2023-01-15T19:26:41.496Z,99074.91
2023-01-15T19:31:43.638Z,99066.53
2023-01-15T19:36:46.154Z,99057.53
2023-01-15T19:42:07.022Z,99049.47
2023-01-15T19:47:35.396Z,99048.53
2023-01-15T19:52:38.034Z,99045.22
2023-01-15T19:57:41.228Z,99037.75
2023-01-15T20:02:44.861Z,99032.63
2023-01-15T20:07:47.257Z,99024.81
2023-01-15T20:13:09.085Z,99012.00
2023-01-15T20:18:11.587Z,99008.41
2023-01-15T20:23:14.521Z,99000.00
2023-01-15T20:28:16.840Z,98983.97
2023-01-15T20:33:18.901Z,98980.97
2023-01-15T20:38:23.043Z,98970.31
2023-01-15T20:43:43.713Z,98973.91
2023-01-15T20:49:04.562Z,98956.66
2023-01-15T20:54:07.056Z,98949.34
2023-01-15T20:59:09.141Z,98954.72
2023-01-15T21:04:13.808Z,98940.59
2023-01-15T21:09:16.577Z,98938.50
2023-01-15T21:14:18.647Z,98940.25
2023-01-15T21:19:21.189Z,98935.34
2023-01-15T21:24:23.552Z,98913.69
2023-01-15T21:29:25.888Z,98902.44
2023-01-15T21:34:28.075Z,98899.59
2023-01-15T21:39:30.191Z,98891.78
2023-01-15T21:44:36.073Z,98878.28
2023-01-15T21:49:38.405Z,98870.66
2023-01-15T21:54:41.215Z,98867.28
2023-01-15T21:59:43.409Z,98862.53
2023-01-15T22:04:45.908Z,98855.06
2023-01-15T22:09:48.366Z,98862.91
2023-01-15T22:14:50.698Z,98861.63
2023-01-15T22:19:53.065Z,98851.72
2023-01-15T22:24:55.136Z,98848.94
2023-01-15T22:29:57.472Z,98861.03
2023-01-15T22:34:59.560Z,98848.81
2023-01-15T22:40:01.960Z,98840.75
2023-01-15T22:45:04.366Z,98838.66
2023-01-15T22:50:06.910Z,98806.97
2023-01-15T22:55:09.639Z,98795.00
2023-01-15T23:00:12.105Z,98796.38
2023-01-15T23:05:14.408Z,98780.31
2023-01-15T23:10:16.910Z,98762.47
2023-01-15T23:15:19.098Z,98760.22
2023-01-15T23:20:21.457Z,98749.28
2023-01-15T23:25:23.604Z,98740.13
2023-01-15T23:30:25.718Z,98740.94
2023-01-15T23:35:27.967Z,98725.53
2023-01-15T23:40:30.219Z,98719.50
2023-01-15T23:45:54.054Z,98704.50
2023-01-15T23:50:56.097Z,98696.47
2023-01-15T23:55:59.719Z,98699.56
